DAUH/HME METAR and TAF weather

Enter ICAO airport designator
Station Type Date Time Source
DAUH METAR 2018/04/21 11:30 UTC NOAA

DAUH 211130Z 05008KT CAVOK 28/07 Q1018


Station Type Date Time Source
DAUH Decoded METAR 2018/04/21 11:30 UTC NOAA

Hassi-Messaoud, Algeria (DAUH) 31-40N 006-09E 142M
Apr 21, 2018 - 07:30 AM EDT / 2018.04.21 1130 UTC
Wind: from the NE (050 degrees) at 9 MPH (8 KT):0
Visibility: greater than 7 mile(s):0
Temperature: 82 F (28 C)
Dew Point: 44 F (7 C)
Relative Humidity: 26%
Pressure (altimeter): 30.06 in. Hg (1018 hPa)
ob: DAUH 211130Z 05008KT CAVOK 28/07 Q1018
cycle: 11

Station Type Date Time Source
DAUH TAF 2018/04/21 12:33 UTC NOAA

TAF DAUH 211100Z 2112/2212 07010KT CAVOK
BECMG 2122/2202 VRB02KT
BECMG 2208/2212 07012KT


Example: see airport list